If you wish to contribute or participate in the discussions about articles you are invited to join SKYbrary as a registered user

 Actions

Albert-Bray Airport

From SKYbrary Wiki

LFAQ
Airport
ICAO: LFAQ
Summary
Name Albert-Bray Airport
Region Europe
Territory France FR.gif
Location , Picardie
Serving Albert
Elevation 110.947 m
364 ft
364 ft110.947 m
Type small airport
Coordinates 49° 58' 17.5116", 2° 41' 51.5796"
Runways
Designator Length Width Surface ROPS
9/27 1170 m3,838.583 ft 25 m82.021 ft ASP /


METAR
Observation LFAQ 222300Z AUTO 16008KT 1300 1200 R27/1600U -RA BR VV/// 12/12 Q1012
Station BRAY
Date/Time 22 September 2018 23:00:00
Wind direction 160°
Wind speed 08 kts
Lowest cloud amount n/a
Temperature 27°C
Dew point 16°C
Humidity 51%
QNH 1012 hPa
Weather condition n/a